createdAt,value
2018-09-09T00:02:26.519Z,15.70
2018-09-09T00:12:25.093Z,15.70
2018-09-09T00:27:22.228Z,15.60
2018-09-09T00:29:52.184Z,15.70
2018-09-09T00:34:52.833Z,15.70
2018-09-09T00:39:52.274Z,15.70
2018-09-09T00:42:23.043Z,15.80
2018-09-09T01:02:29.831Z,15.60
2018-09-09T01:04:59.788Z,15.60
2018-09-09T01:07:29.802Z,15.60
2018-09-09T01:14:58.651Z,15.60
2018-09-09T01:22:27.471Z,15.70
2018-09-09T01:32:25.679Z,15.70
2018-09-09T01:45:00.175Z,15.60
2018-09-09T01:47:30.876Z,15.60
2018-09-09T01:50:00.837Z,15.70
2018-09-09T01:55:00.312Z,15.80
2018-09-09T01:57:30.239Z,15.80
2018-09-09T02:02:29.911Z,15.60
2018-09-09T02:05:00.233Z,15.70
2018-09-09T02:17:27.812Z,15.50
2018-09-09T02:19:58.147Z,15.50
2018-09-09T02:39:54.364Z,15.40
2018-09-09T02:42:31.990Z,15.30
2018-09-09T02:47:31.396Z,15.40
2018-09-09T02:50:01.419Z,15.40
2018-09-09T03:04:58.551Z,15.30
2018-09-09T03:07:28.532Z,15.30
2018-09-09T03:14:57.343Z,15.10
2018-09-09T03:19:56.771Z,15.10
2018-09-09T03:29:55.126Z,15.30
2018-09-09T03:37:24.570Z,15.30
2018-09-09T03:39:54.527Z,15.30
2018-09-09T03:44:53.966Z,15.20
2018-09-09T03:49:54.839Z,15.20
2018-09-09T03:59:53.185Z,15.20
2018-09-09T04:09:51.389Z,15.30
2018-09-09T04:19:49.647Z,15.20
2018-09-09T04:22:19.630Z,15.30
2018-09-09T04:29:48.387Z,15.30
2018-09-09T04:39:47.225Z,15.20
2018-09-09T04:47:16.160Z,15.30
2018-09-09T04:52:15.576Z,15.40
2018-09-09T04:57:15.005Z,15.50
2018-09-09T05:07:13.223Z,15.40
2018-09-09T05:17:11.432Z,15.20
2018-09-09T05:22:10.827Z,15.40
2018-09-09T05:27:11.542Z,15.60
2018-09-09T05:29:41.514Z,15.60
2018-09-09T05:32:11.483Z,15.60
2018-09-09T05:34:41.502Z,15.50
2018-09-09T05:44:39.813Z,15.50
2018-09-09T05:49:39.188Z,15.50
2018-09-09T05:57:08.076Z,15.40
2018-09-09T06:02:07.586Z,15.50
2018-09-09T06:09:36.418Z,15.60
2018-09-09T06:12:06.483Z,15.60
2018-09-09T06:14:36.490Z,15.70
2018-09-09T06:27:04.344Z,16.00
2018-09-09T06:29:34.468Z,16.00
2018-09-09T06:32:04.532Z,16.00
2018-09-09T06:37:05.750Z,15.90
2018-09-09T06:39:36.498Z,16.00
2018-09-09T06:42:06.464Z,16.10
2018-09-09T06:47:06.114Z,16.30
2018-09-09T06:57:04.364Z,16.80
2018-09-09T07:04:33.153Z,16.90
2018-09-09T07:07:03.108Z,16.90
2018-09-09T07:09:33.109Z,16.80
2018-09-09T07:17:02.347Z,17.00
2018-09-09T07:19:32.330Z,17.20
2018-09-09T07:22:02.869Z,17.30
2018-09-09T07:27:02.364Z,17.50
2018-09-09T07:29:32.330Z,17.00
2018-09-09T07:32:02.496Z,17.50
2018-09-09T07:37:05.442Z,17.60
2018-09-09T07:39:35.429Z,17.70
2018-09-09T07:49:33.708Z,18.00
2018-09-09T07:54:33.177Z,18.10
2018-09-09T07:59:32.536Z,18.10
2018-09-09T08:04:31.905Z,18.40
2018-09-09T08:07:01.988Z,18.50
2018-09-09T08:09:32.141Z,18.50
2018-09-09T08:14:31.701Z,18.70
2018-09-09T08:24:30.359Z,19.10
2018-09-09T08:27:00.346Z,19.00
2018-09-09T08:29:30.349Z,18.90
2018-09-09T08:32:00.847Z,19.20
2018-09-09T08:34:30.888Z,19.40
2018-09-09T08:41:59.737Z,20.00
2018-09-09T08:49:28.595Z,19.50
2018-09-09T08:56:57.635Z,19.80
2018-09-09T09:01:57.044Z,19.50
2018-09-09T09:06:56.480Z,19.60
2018-09-09T09:11:55.882Z,19.90
2018-09-09T09:16:55.326Z,20.30
2018-09-09T09:24:24.325Z,20.50
2018-09-09T09:26:54.356Z,20.20
2018-09-09T09:31:53.937Z,20.20
2018-09-09T09:34:26.540Z,20.50
2018-09-09T10:01:53.733Z,20.90
2018-09-09T10:04:23.869Z,20.90
2018-09-09T10:06:54.215Z,20.80
2018-09-09T10:11:53.728Z,21.20
2018-09-09T10:21:53.417Z,21.70
2018-09-09T10:31:53.330Z,21.70
2018-09-09T10:34:23.656Z,21.70
2018-09-09T10:46:56.978Z,22.40
2018-09-09T10:59:31.276Z,22.50
2018-09-09T11:04:31.319Z,23.00
2018-09-09T11:24:28.323Z,23.50
2018-09-09T11:36:56.161Z,23.50
2018-09-09T11:39:26.169Z,23.30
2018-09-09T11:46:55.119Z,23.70
2018-09-09T11:51:54.645Z,23.90
2018-09-09T12:06:52.077Z,23.90
2018-09-09T12:11:52.266Z,23.70
2018-09-09T12:16:51.691Z,23.60
2018-09-09T12:21:51.130Z,23.20
2018-09-09T12:24:21.114Z,22.80
2018-09-09T12:34:23.933Z,22.10
2018-09-09T12:36:53.924Z,22.30
2018-09-09T12:39:23.925Z,22.30
2018-09-09T12:47:03.324Z,22.40
2018-09-09T12:54:32.491Z,22.30
2018-09-09T12:59:31.963Z,23.00
2018-09-09T13:09:30.372Z,23.60
2018-09-09T13:12:07.130Z,23.70
2018-09-09T13:17:06.618Z,25.20
2018-09-09T13:22:06.238Z,26.00
2018-09-09T13:27:05.662Z,26.50
2018-09-09T13:44:32.630Z,26.60
2018-09-09T13:47:02.711Z,26.50
2018-09-09T13:49:32.765Z,27.50
2018-09-09T13:54:32.312Z,30.00
2018-09-09T13:57:03.978Z,30.60
2018-09-09T14:04:33.004Z,31.50
2018-09-09T14:12:02.095Z,31.80
2018-09-09T14:17:01.735Z,32.60
2018-09-09T14:19:31.695Z,32.50
2018-09-09T14:24:31.359Z,33.10
2018-09-09T14:27:01.330Z,34.20
2018-09-09T14:32:00.720Z,34.50
2018-09-09T14:34:30.898Z,34.30
2018-09-09T14:37:00.874Z,33.30
2018-09-09T14:39:30.923Z,33.20
2018-09-09T14:46:59.842Z,32.80
2018-09-09T14:54:28.817Z,31.00
2018-09-09T14:56:58.915Z,29.80
2018-09-09T14:59:28.897Z,28.40
2018-09-09T15:04:28.746Z,26.60
2018-09-09T15:09:28.221Z,25.60
2018-09-09T15:14:27.617Z,25.40
2018-09-09T15:16:57.614Z,25.40
2018-09-09T15:19:27.604Z,25.60
2018-09-09T15:37:00.217Z,25.60
2018-09-09T15:41:59.784Z,25.10
2018-09-09T15:49:29.062Z,25.30
2018-09-09T15:54:28.588Z,25.00
2018-09-09T15:56:58.620Z,24.80
2018-09-09T15:59:28.575Z,24.60
2018-09-09T16:04:28.189Z,24.10
2018-09-09T16:06:58.172Z,24.00
2018-09-09T16:09:28.363Z,23.80
2018-09-09T16:16:57.262Z,24.00
2018-09-09T16:19:27.297Z,23.90
2018-09-09T16:26:56.134Z,23.50
2018-09-09T16:31:55.489Z,23.40
2018-09-09T16:34:25.503Z,23.30
2018-09-09T16:36:55.627Z,23.40
2018-09-09T16:39:25.660Z,23.40
2018-09-09T16:49:24.661Z,23.30
2018-09-09T16:51:54.664Z,23.20
2018-09-09T16:56:54.068Z,23.20
2018-09-09T17:01:53.523Z,23.10
2018-09-09T17:06:53.163Z,23.00
2018-09-09T17:11:52.577Z,23.00
2018-09-09T17:14:22.617Z,22.90
2018-09-09T17:16:52.567Z,22.80
2018-09-09T17:19:22.723Z,22.70
2018-09-09T17:26:51.928Z,22.40
2018-09-09T17:36:50.474Z,22.00
2018-09-09T17:39:20.485Z,21.90
2018-09-09T17:44:19.968Z,21.80
2018-09-09T17:49:19.440Z,21.70
2018-09-09T17:54:18.845Z,21.70
2018-09-09T17:56:48.881Z,21.60
2018-09-09T18:04:17.740Z,21.50
2018-09-09T18:11:46.686Z,21.10
2018-09-09T18:16:46.034Z,20.90
2018-09-09T18:26:44.280Z,20.70
2018-09-09T18:36:42.773Z,20.30
2018-09-09T18:46:41.094Z,20.20
2018-09-09T18:49:11.109Z,20.10
2018-09-09T18:54:10.455Z,20.10
2018-09-09T18:56:40.558Z,20.10
2018-09-09T19:01:39.980Z,20.20
2018-09-09T19:04:09.956Z,20.10
2018-09-09T19:09:09.447Z,20.10
2018-09-09T19:14:08.974Z,20.20
2018-09-09T19:26:36.835Z,20.10
2018-09-09T19:29:06.775Z,20.10
2018-09-09T19:36:35.852Z,20.10
2018-09-09T19:49:06.540Z,20.10
2018-09-09T19:51:36.748Z,20.10
2018-09-09T19:54:06.859Z,20.10
2018-09-09T20:01:35.683Z,20.20
2018-09-09T20:04:05.652Z,20.10
2018-09-09T20:06:35.608Z,20.10
2018-09-09T20:09:06.984Z,20.10
2018-09-09T20:14:06.916Z,20.00
2018-09-09T20:26:35.071Z,19.90
2018-09-09T20:31:34.457Z,19.80
2018-09-09T20:49:01.142Z,19.30
2018-09-09T20:51:31.193Z,19.30
2018-09-09T20:59:00.135Z,19.10
2018-09-09T21:03:59.511Z,19.10
2018-09-09T21:08:59.013Z,19.10
2018-09-09T21:13:58.417Z,19.10
2018-09-09T21:18:57.772Z,19.00
2018-09-09T21:43:53.908Z,18.90
2018-09-09T21:48:53.348Z,18.90
2018-09-09T21:51:23.277Z,18.90
2018-09-09T21:53:53.241Z,18.80
2018-09-09T22:01:27.258Z,18.70
2018-09-09T22:08:58.598Z,18.80
2018-09-09T22:13:58.031Z,18.80
2018-09-09T22:23:56.282Z,18.80
2018-09-09T22:26:26.224Z,18.80
2018-09-09T22:31:27.258Z,18.70
2018-09-09T22:48:53.756Z,18.60
2018-09-09T22:53:53.132Z,18.70
2018-09-09T23:01:21.974Z,18.70
2018-09-09T23:03:51.961Z,18.80
2018-09-09T23:08:51.464Z,18.70
2018-09-09T23:11:21.492Z,18.70
2018-09-09T23:18:50.604Z,18.80
2018-09-09T23:23:49.976Z,18.80
2018-09-09T23:28:49.581Z,18.90
2018-09-09T23:31:19.659Z,18.90
2018-09-09T23:33:49.602Z,18.90
2018-09-09T23:38:48.990Z,19.00
2018-09-09T23:48:48.850Z,19.00
2018-09-09T23:53:51.948Z,19.10
2018-09-09T23:58:51.474Z,18.90
